createdAt,value
2017-12-27T00:00:49.845Z,-0.60
2017-12-27T00:03:23.202Z,-0.60
2017-12-27T00:05:56.611Z,-0.70
2017-12-27T00:08:33.839Z,-0.50
2017-12-27T00:11:07.049Z,-0.30
2017-12-27T00:16:25.934Z,-0.50
2017-12-27T00:18:59.198Z,-0.80
2017-12-27T00:21:32.538Z,-0.60
2017-12-27T00:26:50.409Z,-0.60
2017-12-27T00:29:23.856Z,-0.80
2017-12-27T00:31:52.323Z,-0.50
2017-12-27T00:34:20.393Z,-0.40
2017-12-27T00:36:48.071Z,-0.40
2017-12-27T00:41:43.364Z,-0.90
2017-12-27T00:44:11.090Z,-0.80
2017-12-27T00:46:38.717Z,-0.50
2017-12-27T00:49:06.339Z,-0.20
2017-12-27T00:51:34.581Z,-0.20
2017-12-27T00:54:02.541Z,-0.10
2017-12-27T00:56:30.157Z,-0.20
2017-12-27T00:58:57.840Z,-0.70
2017-12-27T01:01:26.287Z,-0.50
2017-12-27T01:03:53.910Z,-0.60
2017-12-27T01:06:21.591Z,-0.40
2017-12-27T01:08:49.224Z,-0.30
2017-12-27T01:11:19.910Z,-0.20
2017-12-27T01:13:50.504Z,-0.20
2017-12-27T01:16:18.154Z,-0.10
2017-12-27T01:18:46.138Z,0.10
2017-12-27T01:21:13.828Z,-0.30
2017-12-27T01:23:41.461Z,-0.10
2017-12-27T01:26:09.083Z,0.00
2017-12-27T01:28:36.771Z,0.10
2017-12-27T01:31:04.403Z,0.00
2017-12-27T01:33:32.023Z,0.00
2017-12-27T01:35:59.702Z,0.10
2017-12-27T01:38:27.329Z,0.30
2017-12-27T01:40:58.074Z,0.10
2017-12-27T01:43:25.775Z,0.00
2017-12-27T01:45:53.404Z,0.00
2017-12-27T01:51:02.822Z,-0.10
2017-12-27T01:53:30.433Z,0.00
2017-12-27T01:55:58.992Z,0.10
2017-12-27T01:58:26.694Z,-0.10
2017-12-27T02:00:54.320Z,-0.10
2017-12-27T02:03:21.945Z,-0.20
2017-12-27T02:05:52.483Z,-0.50
2017-12-27T02:08:17.244Z,-0.60
2017-12-27T02:10:44.871Z,-0.50
2017-12-27T02:15:40.209Z,-0.20
2017-12-27T02:18:10.484Z,0.50
2017-12-27T02:23:15.764Z,2.80
2017-12-27T02:25:43.515Z,1.70
2017-12-27T02:28:13.329Z,1.60
2017-12-27T02:30:40.961Z,2.00
2017-12-27T02:33:08.623Z,3.90
2017-12-27T02:35:36.261Z,2.50
2017-12-27T02:38:06.227Z,1.10
2017-12-27T02:40:33.760Z,1.20
2017-12-27T02:43:02.532Z,1.70
2017-12-27T02:45:30.147Z,1.00
2017-12-27T02:50:28.423Z,3.00
2017-12-27T02:52:56.037Z,1.80
2017-12-27T02:55:25.890Z,1.40
2017-12-27T02:57:53.424Z,1.20
2017-12-27T03:00:21.033Z,2.60
2017-12-27T03:05:17.092Z,2.60
2017-12-27T03:10:24.337Z,1.70
2017-12-27T03:12:51.953Z,2.50
2017-12-27T03:15:19.587Z,3.30
2017-12-27T03:20:14.876Z,4.00
2017-12-27T03:22:42.507Z,4.40
2017-12-27T03:25:13.692Z,4.80
2017-12-27T03:27:41.321Z,5.20
2017-12-27T03:30:08.952Z,5.30
2017-12-27T03:32:36.632Z,5.50
2017-12-27T03:35:04.250Z,5.90
2017-12-27T03:37:31.867Z,6.40
2017-12-27T03:39:59.568Z,4.90
2017-12-27T03:42:27.196Z,4.60
2017-12-27T03:44:55.641Z,5.00
2017-12-27T03:47:23.385Z,5.50
2017-12-27T03:49:53.070Z,5.50
2017-12-27T03:52:18.895Z,6.00
2017-12-27T03:54:47.855Z,6.20
2017-12-27T03:57:15.477Z,6.10
2017-12-27T03:59:43.123Z,7.70
2017-12-27T04:02:10.805Z,7.40
2017-12-27T04:04:38.430Z,6.90
2017-12-27T04:07:06.907Z,7.60
2017-12-27T04:12:02.213Z,7.20
2017-12-27T04:14:29.834Z,7.60
2017-12-27T04:16:57.528Z,7.90
2017-12-27T04:19:25.157Z,8.00
2017-12-27T04:21:52.784Z,7.40
2017-12-27T04:24:20.470Z,7.40
2017-12-27T04:26:48.240Z,6.70
2017-12-27T04:29:15.860Z,7.00
2017-12-27T04:36:52.394Z,3.90
2017-12-27T04:39:20.016Z,4.40
2017-12-27T04:41:47.642Z,4.20
2017-12-27T04:44:15.343Z,3.90
2017-12-27T04:46:42.970Z,4.40
2017-12-27T04:49:10.591Z,3.80
2017-12-27T04:51:38.284Z,3.60
2017-12-27T04:54:05.907Z,3.50
2017-12-27T04:56:34.350Z,4.30
2017-12-27T04:59:02.040Z,5.70
2017-12-27T05:01:30.597Z,6.00
2017-12-27T05:06:26.764Z,4.60
2017-12-27T05:08:56.134Z,4.60
2017-12-27T05:11:23.752Z,4.90
2017-12-27T05:13:51.447Z,3.90
2017-12-27T05:16:19.072Z,4.80
2017-12-27T05:18:46.695Z,5.70
2017-12-27T05:21:14.371Z,6.40
2017-12-27T05:23:41.991Z,6.90
2017-12-27T05:28:37.304Z,6.70
2017-12-27T05:31:04.915Z,7.00
2017-12-27T05:33:32.540Z,7.30
2017-12-27T05:36:00.239Z,7.20
2017-12-27T05:41:01.694Z,7.80
2017-12-27T05:43:31.081Z,8.10
2017-12-27T05:45:58.702Z,8.10
2017-12-27T05:48:27.733Z,8.00
2017-12-27T05:50:55.359Z,7.70
2017-12-27T05:53:22.987Z,8.00
2017-12-27T05:55:50.729Z,8.10
2017-12-27T05:58:20.324Z,8.10
2017-12-27T06:00:47.975Z,8.10
2017-12-27T06:08:22.507Z,8.50
2017-12-27T06:10:50.130Z,8.50
2017-12-27T06:13:17.748Z,8.70
2017-12-27T06:15:47.070Z,8.60
2017-12-27T06:18:16.594Z,8.60
2017-12-27T06:20:43.275Z,8.70
2017-12-27T06:25:38.585Z,8.70
2017-12-27T06:28:06.199Z,8.90
2017-12-27T06:30:34.260Z,8.90
2017-12-27T06:33:02.822Z,8.70
2017-12-27T06:35:31.801Z,8.70
2017-12-27T06:37:59.816Z,8.90
2017-12-27T06:40:27.440Z,8.60
2017-12-27T06:42:55.065Z,8.80
2017-12-27T06:45:22.868Z,8.70
2017-12-27T06:47:51.315Z,8.50
2017-12-27T06:50:18.939Z,8.70
2017-12-27T06:52:46.638Z,8.80
2017-12-27T06:55:14.255Z,8.70
2017-12-27T06:57:41.875Z,8.60
2017-12-27T07:02:42.768Z,8.70
2017-12-27T07:05:10.598Z,8.70
2017-12-27T07:07:38.219Z,8.70
2017-12-27T07:10:05.852Z,8.80
2017-12-27T07:12:33.542Z,8.80
2017-12-27T07:15:07.412Z,8.60
2017-12-27T07:17:38.570Z,8.70
2017-12-27T07:20:06.189Z,8.60
2017-12-27T07:27:43.808Z,8.50
2017-12-27T07:30:11.421Z,8.70
2017-12-27T07:32:39.049Z,8.80
2017-12-27T07:37:49.735Z,8.90
2017-12-27T07:40:17.428Z,9.00
2017-12-27T07:42:45.045Z,8.80
2017-12-27T07:45:12.669Z,9.00
2017-12-27T07:47:40.371Z,9.00
2017-12-27T07:50:07.998Z,9.10
2017-12-27T07:52:35.615Z,8.90
2017-12-27T07:55:03.295Z,9.00
2017-12-27T07:57:30.912Z,9.00
2017-12-27T07:59:58.550Z,9.10
2017-12-27T08:02:26.243Z,9.10
2017-12-27T08:04:57.212Z,9.20
2017-12-27T08:07:24.841Z,9.10
2017-12-27T08:09:55.661Z,9.10
2017-12-27T08:12:23.286Z,9.30
2017-12-27T08:14:51.866Z,9.30
2017-12-27T08:17:19.547Z,9.30
2017-12-27T08:19:48.319Z,9.30
2017-12-27T08:22:15.949Z,9.40
2017-12-27T08:24:47.093Z,9.30
2017-12-27T08:27:14.713Z,9.50
2017-12-27T08:29:42.339Z,9.50
2017-12-27T08:32:12.235Z,9.60
2017-12-27T08:34:39.855Z,9.50
2017-12-27T08:37:07.476Z,9.50
2017-12-27T08:39:35.161Z,9.50
2017-12-27T08:42:03.752Z,9.60
2017-12-27T08:44:31.383Z,9.60
2017-12-27T08:46:59.065Z,9.50
2017-12-27T08:49:26.684Z,9.50
2017-12-27T08:51:54.306Z,9.40
2017-12-27T08:54:21.997Z,9.50
2017-12-27T08:56:49.621Z,9.50
2017-12-27T08:59:17.501Z,9.50
2017-12-27T09:01:45.180Z,9.60
2017-12-27T09:06:51.972Z,9.60
2017-12-27T09:09:19.595Z,9.70
2017-12-27T09:11:48.151Z,9.70
2017-12-27T09:14:15.835Z,9.80
2017-12-27T09:16:44.104Z,9.80
2017-12-27T09:19:14.318Z,9.80
2017-12-27T09:24:22.619Z,9.80
2017-12-27T09:26:50.324Z,9.80
2017-12-27T09:29:17.942Z,9.90
2017-12-27T09:31:45.562Z,9.80
2017-12-27T09:34:13.237Z,9.90
2017-12-27T09:36:40.864Z,9.90
2017-12-27T09:39:08.478Z,10.00
2017-12-27T09:41:36.161Z,9.90
2017-12-27T09:44:04.495Z,9.70
2017-12-27T09:46:32.063Z,9.70
2017-12-27T09:48:59.773Z,9.50
2017-12-27T09:51:27.388Z,9.60
2017-12-27T09:53:55.882Z,9.60
2017-12-27T09:56:23.581Z,9.50
2017-12-27T09:58:52.569Z,9.40
2017-12-27T10:01:20.188Z,9.40
2017-12-27T10:06:32.076Z,9.50
2017-12-27T10:08:59.755Z,9.50
2017-12-27T10:11:27.380Z,9.30
2017-12-27T10:13:55.014Z,9.40
2017-12-27T10:16:22.714Z,9.40
2017-12-27T10:18:51.393Z,9.60
2017-12-27T10:21:19.015Z,9.60
2017-12-27T10:23:48.043Z,9.60
2017-12-27T10:26:15.669Z,9.50
2017-12-27T10:28:43.296Z,9.60
2017-12-27T10:31:10.989Z,9.70
2017-12-27T10:33:38.616Z,9.80
2017-12-27T10:36:06.231Z,9.90
2017-12-27T10:38:33.932Z,9.90
2017-12-27T10:41:01.556Z,9.90
2017-12-27T10:43:29.178Z,9.80
2017-12-27T10:45:56.856Z,9.80
2017-12-27T10:48:26.426Z,9.80
2017-12-27T10:50:54.043Z,9.80
2017-12-27T10:53:28.206Z,9.70
2017-12-27T10:55:52.919Z,9.70
2017-12-27T10:58:20.550Z,9.70
2017-12-27T11:00:48.247Z,9.90
2017-12-27T11:03:15.866Z,9.90
2017-12-27T11:05:43.556Z,9.80
2017-12-27T11:10:41.969Z,9.80
2017-12-27T11:13:09.593Z,9.80
2017-12-27T11:15:37.279Z,10.10
2017-12-27T11:18:04.906Z,10.20
2017-12-27T11:20:32.558Z,10.20
2017-12-27T11:23:00.246Z,10.30
2017-12-27T11:25:27.870Z,10.40
2017-12-27T11:27:55.492Z,10.50
2017-12-27T11:30:24.424Z,10.60
2017-12-27T11:40:31.911Z,10.90
2017-12-27T11:42:59.613Z,10.80
2017-12-27T11:45:27.241Z,10.50
2017-12-27T11:47:54.864Z,10.60
2017-12-27T11:50:22.536Z,10.50
2017-12-27T11:52:50.154Z,10.60
2017-12-27T11:55:17.779Z,10.30
2017-12-27T11:57:45.489Z,10.40
2017-12-27T12:00:13.465Z,10.40
2017-12-27T12:05:08.683Z,10.30
2017-12-27T12:07:36.310Z,10.20
2017-12-27T12:10:03.945Z,10.40
2017-12-27T12:12:31.645Z,10.40
2017-12-27T12:14:59.266Z,10.40
2017-12-27T12:17:26.902Z,10.30
2017-12-27T12:19:54.581Z,10.30
2017-12-27T12:22:22.233Z,10.40
2017-12-27T12:24:49.872Z,10.30
2017-12-27T12:27:17.578Z,10.40
2017-12-27T12:29:45.198Z,10.20
2017-12-27T12:32:16.292Z,10.20
2017-12-27T12:34:43.965Z,10.10
2017-12-27T12:37:13.454Z,10.10
2017-12-27T12:39:41.086Z,10.20
2017-12-27T12:42:10.251Z,10.20
2017-12-27T12:44:37.876Z,10.30
2017-12-27T12:47:05.528Z,10.20
2017-12-27T12:49:33.232Z,10.30
2017-12-27T12:54:41.275Z,10.20
2017-12-27T12:57:08.898Z,10.20
2017-12-27T12:59:36.531Z,10.10
2017-12-27T13:02:04.231Z,10.10
2017-12-27T13:04:31.854Z,10.20
2017-12-27T13:06:59.486Z,9.90
2017-12-27T13:09:27.154Z,10.10
2017-12-27T13:11:54.779Z,10.00
2017-12-27T13:14:22.410Z,10.00
2017-12-27T13:16:50.107Z,10.00
2017-12-27T13:19:17.741Z,9.90
2017-12-27T13:21:45.357Z,9.60
2017-12-27T13:24:13.384Z,9.50
2017-12-27T13:26:40.970Z,9.50
2017-12-27T13:29:08.587Z,9.40
2017-12-27T13:31:36.266Z,9.40
2017-12-27T13:36:31.511Z,9.20
2017-12-27T13:38:59.219Z,9.00
2017-12-27T13:41:26.836Z,8.90
2017-12-27T13:43:54.463Z,9.00
2017-12-27T13:46:22.144Z,8.80
2017-12-27T13:48:50.529Z,8.80
2017-12-27T13:51:18.147Z,8.70
2017-12-27T13:53:45.851Z,8.60
2017-12-27T13:56:15.020Z,8.50
2017-12-27T13:58:42.648Z,8.60
2017-12-27T14:01:10.354Z,8.50
2017-12-27T14:06:05.595Z,8.40
2017-12-27T14:08:33.964Z,8.30
2017-12-27T14:11:01.591Z,8.20
2017-12-27T14:13:29.211Z,8.30
2017-12-27T14:15:56.887Z,8.30
2017-12-27T14:21:05.679Z,8.10
2017-12-27T14:23:33.336Z,8.20
2017-12-27T14:26:00.959Z,8.20
2017-12-27T14:28:30.608Z,8.10
2017-12-27T14:30:58.223Z,8.10
2017-12-27T14:33:26.241Z,8.10
2017-12-27T14:35:54.212Z,8.00
2017-12-27T14:38:22.984Z,8.10
2017-12-27T14:40:50.602Z,8.00
2017-12-27T14:43:20.415Z,7.90
2017-12-27T14:45:48.030Z,7.90
2017-12-27T14:48:16.442Z,7.90
2017-12-27T14:53:18.157Z,7.50
2017-12-27T14:55:45.779Z,7.40
2017-12-27T14:58:14.211Z,7.50
2017-12-27T15:00:44.742Z,7.50
2017-12-27T15:03:12.355Z,7.50
2017-12-27T15:05:39.970Z,7.60
2017-12-27T15:08:07.681Z,7.60
2017-12-27T15:10:36.450Z,7.60
2017-12-27T15:13:04.076Z,7.60
2017-12-27T15:15:31.775Z,7.70
2017-12-27T15:17:59.400Z,7.30
2017-12-27T15:20:27.979Z,7.10
2017-12-27T15:25:23.282Z,7.40
2017-12-27T15:27:50.907Z,7.30
2017-12-27T15:30:18.920Z,7.20
2017-12-27T15:32:46.535Z,7.10
2017-12-27T15:37:58.475Z,7.20
2017-12-27T15:40:27.851Z,7.30
2017-12-27T15:42:55.472Z,7.40
2017-12-27T15:45:23.175Z,7.40
2017-12-27T15:47:50.794Z,7.20
2017-12-27T15:50:18.421Z,7.20
2017-12-27T15:52:46.094Z,7.30
2017-12-27T15:55:14.670Z,7.10
2017-12-27T15:57:42.299Z,7.20
2017-12-27T16:02:51.055Z,7.10
2017-12-27T16:05:18.751Z,7.20
2017-12-27T16:07:47.126Z,7.20
2017-12-27T16:10:14.734Z,7.20
2017-12-27T16:12:42.448Z,7.30
2017-12-27T16:17:48.856Z,7.10
2017-12-27T16:20:16.474Z,7.10
2017-12-27T16:22:44.097Z,7.10
2017-12-27T16:25:13.916Z,7.10
2017-12-27T16:27:41.537Z,7.00
2017-12-27T16:30:09.168Z,6.90
2017-12-27T16:32:37.676Z,6.90
2017-12-27T16:35:06.123Z,7.00
2017-12-27T16:37:34.315Z,7.00
2017-12-27T16:40:01.882Z,6.90
2017-12-27T16:42:29.510Z,6.80
2017-12-27T16:44:57.131Z,6.80
2017-12-27T16:47:24.828Z,6.80
2017-12-27T16:52:20.071Z,6.80
2017-12-27T16:54:47.776Z,6.90
2017-12-27T16:57:16.213Z,7.00
2017-12-27T16:59:44.164Z,6.90
2017-12-27T17:02:11.850Z,7.00
2017-12-27T17:04:39.474Z,6.90
2017-12-27T17:09:34.799Z,6.70
2017-12-27T17:12:02.413Z,6.70
2017-12-27T17:14:30.352Z,6.80
2017-12-27T17:16:58.888Z,6.80
2017-12-27T17:21:56.280Z,6.70
2017-12-27T17:24:24.798Z,6.80
2017-12-27T17:26:52.424Z,6.60
2017-12-27T17:29:20.861Z,6.60
2017-12-27T17:31:49.240Z,6.50
2017-12-27T17:34:16.854Z,6.50
2017-12-27T17:39:23.625Z,6.70
2017-12-27T17:41:51.240Z,6.90
2017-12-27T17:44:18.856Z,6.90
2017-12-27T17:46:46.554Z,6.80
2017-12-27T17:49:14.182Z,6.60
2017-12-27T17:56:59.762Z,6.60
2017-12-27T17:59:27.383Z,6.70
2017-12-27T18:01:57.225Z,6.70
2017-12-27T18:04:25.757Z,6.50
2017-12-27T18:12:05.802Z,6.50
2017-12-27T18:14:33.421Z,6.50
2017-12-27T18:17:01.124Z,6.60
2017-12-27T18:21:56.371Z,6.50
2017-12-27T18:24:24.059Z,6.60
2017-12-27T18:26:51.683Z,6.60
2017-12-27T18:29:19.303Z,6.50
2017-12-27T18:31:50.619Z,6.40
2017-12-27T18:34:18.247Z,6.40
2017-12-27T18:36:45.864Z,6.40
2017-12-27T18:39:13.536Z,6.40
2017-12-27T18:47:01.028Z,6.40
2017-12-27T18:49:30.618Z,6.60
2017-12-27T18:51:56.343Z,6.60
2017-12-27T18:54:23.962Z,6.70
2017-12-27T18:56:53.722Z,6.70
2017-12-27T19:02:03.969Z,6.70
2017-12-27T19:04:35.324Z,6.70
2017-12-27T19:07:03.955Z,6.60
2017-12-27T19:09:33.415Z,6.60
2017-12-27T19:12:01.041Z,6.60
2017-12-27T19:14:28.739Z,6.50
2017-12-27T19:16:57.293Z,6.40
2017-12-27T19:19:24.912Z,6.40
2017-12-27T19:21:52.607Z,6.20
2017-12-27T19:24:20.235Z,6.10
2017-12-27T19:26:47.853Z,5.90
2017-12-27T19:29:19.391Z,5.60
2017-12-27T19:34:14.631Z,5.40
2017-12-27T19:36:42.347Z,5.30
2017-12-27T19:39:09.960Z,5.20
2017-12-27T19:41:37.588Z,5.20
2017-12-27T19:46:35.115Z,5.00
2017-12-27T19:49:02.742Z,5.10
2017-12-27T19:51:30.439Z,4.90
2017-12-27T19:53:58.059Z,4.90
2017-12-27T19:56:25.682Z,4.90
2017-12-27T19:58:55.982Z,4.90
2017-12-27T20:01:23.614Z,4.90
2017-12-27T20:03:51.244Z,4.80
2017-12-27T20:06:18.951Z,4.70
2017-12-27T20:08:49.881Z,4.60
2017-12-27T20:11:17.506Z,4.50
2017-12-27T20:16:15.527Z,4.50
2017-12-27T20:18:43.171Z,4.50
2017-12-27T20:21:10.851Z,4.40
2017-12-27T20:23:38.474Z,4.50
2017-12-27T20:31:15.846Z,4.20
2017-12-27T20:36:24.181Z,4.10
2017-12-27T20:38:52.240Z,4.10
2017-12-27T20:41:19.837Z,4.20
2017-12-27T20:43:47.463Z,4.20
2017-12-27T20:46:18.839Z,4.30
2017-12-27T20:48:49.603Z,4.20
2017-12-27T20:51:17.284Z,4.10
2017-12-27T20:53:49.375Z,4.10
2017-12-27T20:56:16.999Z,4.00
2017-12-27T20:58:44.628Z,3.90
2017-12-27T21:01:12.325Z,3.80
2017-12-27T21:03:42.038Z,3.70
2017-12-27T21:08:42.263Z,3.80
2017-12-27T21:11:11.357Z,3.80
2017-12-27T21:13:38.977Z,3.80
2017-12-27T21:16:06.651Z,4.00
2017-12-27T21:21:01.899Z,4.10
2017-12-27T21:23:29.606Z,4.10
2017-12-27T21:25:57.247Z,4.20
2017-12-27T21:28:24.872Z,4.20
2017-12-27T21:33:24.272Z,4.20
2017-12-27T21:35:51.904Z,4.30
2017-12-27T21:38:19.573Z,4.30
2017-12-27T21:43:28.656Z,4.40
2017-12-27T21:45:53.453Z,4.30
2017-12-27T21:48:28.561Z,4.30
2017-12-27T21:50:56.189Z,4.10
2017-12-27T21:53:23.840Z,3.90
2017-12-27T21:55:51.543Z,3.70
2017-12-27T22:01:05.192Z,3.80
2017-12-27T22:03:32.820Z,3.90
2017-12-27T22:06:00.503Z,4.10
2017-12-27T22:08:28.164Z,4.20
2017-12-27T22:10:55.784Z,4.10
2017-12-27T22:13:24.355Z,4.20
2017-12-27T22:15:52.067Z,4.00
2017-12-27T22:18:19.699Z,4.10
2017-12-27T22:20:54.610Z,3.90
2017-12-27T22:23:22.230Z,3.80
2017-12-27T22:25:49.855Z,3.80
2017-12-27T22:28:17.557Z,3.80
2017-12-27T22:33:15.655Z,3.50
2017-12-27T22:35:44.263Z,3.40
2017-12-27T22:38:11.958Z,3.60
2017-12-27T22:40:39.594Z,3.30
2017-12-27T22:43:07.216Z,3.10
2017-12-27T22:45:34.891Z,2.60
2017-12-27T22:48:02.526Z,2.70
2017-12-27T22:53:10.813Z,2.50
2017-12-27T22:55:38.727Z,2.40
2017-12-27T22:58:06.349Z,2.20
2017-12-27T23:03:05.734Z,2.00
2017-12-27T23:05:33.427Z,1.80
2017-12-27T23:08:01.071Z,1.80
2017-12-27T23:10:28.693Z,1.80
2017-12-27T23:12:56.378Z,1.90
2017-12-27T23:15:24.000Z,1.80
2017-12-27T23:17:52.060Z,1.80
2017-12-27T23:20:19.752Z,1.60
2017-12-27T23:22:47.372Z,1.60
2017-12-27T23:25:14.999Z,1.80
2017-12-27T23:27:42.668Z,1.60
2017-12-27T23:30:10.291Z,1.70
2017-12-27T23:32:39.866Z,1.70
2017-12-27T23:35:07.554Z,1.70
2017-12-27T23:37:35.176Z,1.70
2017-12-27T23:40:02.801Z,1.70
2017-12-27T23:42:33.487Z,1.80
2017-12-27T23:47:28.734Z,1.50
2017-12-27T23:49:56.446Z,1.60
2017-12-27T23:52:26.260Z,1.60
2017-12-27T23:54:53.883Z,1.50
2017-12-27T23:57:21.566Z,1.50
2017-12-27T23:59:49.186Z,1.50
